Aérodrome :
LOGIN :

S'inscrire | Disclaimer

   EN    FR    IT 

 










Légende :    VFR   VFR Marginal   IFR   IFR Intensif   IFR Très Intensif
Visi : 
Plafond : 
>= 8 km
>= 3000ft
5 à 8 km
1000 à 3000 ft
1500m à 5 km
500 à 1000 ft
800 à 1500m
200 à 500 ft
< 800m
< 200 ft
Symboles :   Orages  Brouillard  Fortes neiges  Fortes précipitations  Vent > 20 kt
SIGMETs :   Divers  Orages  Givrage  Turbulence  Onde Orograph.  Cendres Volcan.






- Altitude de l'aérodrome : 353 ft
- Code IATA : ZAG


LDZA - Zagreb Pleso

DERNIER METAR :
  • 110200Z 25004KT CAVOK M03/M05 Q1023 NOSIG

METARs EXPIRÉS :
  • 110130Z 26002KT CAVOK M03/M04 Q1024 NOSIG
  • 110100Z 25001KT CAVOK M03/M05 Q1024 NOSIG
  • 110030Z 22002KT CAVOK M02/M04 Q1024 NOSIG
  • 110000Z 26001KT CAVOK M02/M04 Q1024 NOSIG
  • 102330Z 29002KT CAVOK M02/M04 Q1024 NOSIG

TAF TAF LDZA
Valide du 11 à 00h jusqu'au 12 à 00h UTC


102325Z 1100/1200 VRB02KT CAVOK TX04/1112Z TNM05/1105Z
ATIS : +385 1 6-259-214



MET'MAP, la Météo Aéronautique d'un coup d'oeil ! - Copyright ORBIFLY Décembre 2007 - Disclaimer

ORBIFLY MET'MAP TEAM :

Programmation & Développement : Alexandra Zaïnal
Sur une idée originale de : Baudouin d'Aumeries
Assistance à la programmation : Marc-Olivier Méhu
Soutien technique & logistique : Manuel Goepfert

Contact : metmap@orbifly.com




SOURCES & CREDITS :

   NOAA